메인 페이지
METAR-TAF:

METAR-TAF

공항 :

홍콩 국제공항

홍콩, 중국

위도: 22-19N, 경도: 113-55E, 고도: 9m

현재 날씨관측

예보는 13분 전, 15:30시(UTC)에 발표되었습니다.
북북동4kt풍과 북동풍을 오가는
온도 29°C
습도 84%
기압 1003 hPa
시정 10km 이상
고도 1500ft 상공 구름 조금
고도 2500ft 상공 구름 보통

METAR: VHHH 191530Z 03004KT 350V050 9999 FEW015 SCT025 29/26 Q1003 NOSIG

시각: 23:43 (15:43 UTC)

예보

예보는 3 시간 10분 전, 12:33시(UTC)에 발표되었습니다.
예보 대상 시간: 19일 13시부터 20일 18시까지 (UTC)
여러 방향의 바람 5kt
시정: 9000m
고도 1500ft 상공 구름 조금
일시적
19일 15시부터 19일 21시까지 (UTC)
시정: 3500m
고도 1200ft 상공 구름 조금, 적란운.
고도 2000ft 상공 구름 보통
소나기
일시적
19일 21시부터 20일 03시까지 (UTC)
시정: 2500m
고도 1000ft 상공 구름 조금, 적란운.
고도 2000ft 상공 구름 보통
뇌우, 비, 소나기
일시적
20일 00시부터 20일 12시까지 (UTC)
서남서10kt
일시적
20일 03시부터 20일 07시까지 (UTC)
시정: 4000m
고도 1200ft 상공 구름 조금, 적란운.
고도 2500ft 상공 구름 보통
소나기

TAF: VHHH 191233Z 1913/2018 VRB05KT 9000 FEW015 TX31/2006Z TN26/1922Z TEMPO 1915/1921 3500 SHRA FEW012CB SCT020 TEMPO 1921/2003 2500 TSRA SHRA FEW010CB SCT020 TEMPO 2000/2012 25010KT TEMPO 2003/2007 4000 SHRA FEW012CB SCT025

4,000개 이상의 공항 관측 자료 및 예보 (METAR 및 TAF 보고).

지도상에서 검색 가능한 기상관측소가 노란 점과 빨간 점으로 표시되어 있습니다.

기상관측소 명을 보려면 표시 위로 마우스를 이동하세요.

날씨 관측과 예보를 보려면 클릭하세요.

지도 변경 : 확대하려면 엑스 표시가 있는 녹색 버튼, 축소하려면 빼기 표시가 있는 녹색 버튼, 다음 페이지의 지도를 보려면 녹색 화살표를 클릭하세요.


METAR-TAF: